createdAt,value
2022-12-03T00:01:34.978Z,27.47
2022-12-03T00:04:03.272Z,27.20
2022-12-03T00:06:34.535Z,26.40
2022-12-03T00:09:03.361Z,32.60
2022-12-03T00:11:31.518Z,34.03
2022-12-03T00:13:59.498Z,28.13
2022-12-03T00:16:28.973Z,34.00
2022-12-03T00:18:56.974Z,25.27
2022-12-03T00:21:25.104Z,28.10
2022-12-03T00:23:53.256Z,31.23
2022-12-03T00:26:21.212Z,33.60
2022-12-03T00:28:49.145Z,30.13
2022-12-03T00:31:17.568Z,34.50
2022-12-03T00:33:46.921Z,33.60
2022-12-03T00:36:14.859Z,30.77
2022-12-03T00:38:42.810Z,30.23
2022-12-03T00:41:10.814Z,30.77
2022-12-03T00:43:38.774Z,37.03
2022-12-03T00:46:07.079Z,30.93
2022-12-03T00:48:35.039Z,29.63
2022-12-03T00:51:04.370Z,26.43
2022-12-03T00:53:32.377Z,27.30
2022-12-03T00:56:01.533Z,27.90
2022-12-03T00:58:29.473Z,28.33
2022-12-03T01:00:57.390Z,26.40
2022-12-03T01:03:25.354Z,25.33
2022-12-03T01:05:53.277Z,35.37
2022-12-03T01:08:22.558Z,25.70
2022-12-03T01:10:50.504Z,24.30
2022-12-03T01:13:18.429Z,26.07
2022-12-03T01:15:46.454Z,22.47
2022-12-03T01:18:14.407Z,27.77
2022-12-03T01:20:42.399Z,28.40
2022-12-03T01:23:10.503Z,31.50
2022-12-03T01:25:39.754Z,29.73
2022-12-03T01:28:07.694Z,29.10
2022-12-03T01:30:55.641Z,32.20
2022-12-03T01:33:22.603Z,33.43
2022-12-03T01:35:50.553Z,29.60
2022-12-03T01:38:18.433Z,34.13
2022-12-03T01:40:49.845Z,36.07
2022-12-03T01:43:17.863Z,32.07
2022-12-03T01:45:45.791Z,37.30
2022-12-03T01:48:16.555Z,36.90
2022-12-03T01:50:45.284Z,37.07
2022-12-03T01:53:18.232Z,37.60
2022-12-03T01:55:49.012Z,30.03
2022-12-03T01:58:18.851Z,43.53
2022-12-03T02:00:46.794Z,46.57
2022-12-03T02:03:19.761Z,43.77
2022-12-03T02:05:48.069Z,41.43
2022-12-03T02:08:32.910Z,55.50
2022-12-03T02:11:04.326Z,38.83
2022-12-03T02:13:32.874Z,54.63
2022-12-03T02:16:02.719Z,55.53
2022-12-03T02:18:30.777Z,57.17
2022-12-03T02:21:06.361Z,58.50
2022-12-03T02:23:41.224Z,67.13
2022-12-03T02:26:11.013Z,69.17
2022-12-03T02:28:39.123Z,67.07
2022-12-03T02:31:07.900Z,76.10
2022-12-03T02:33:37.136Z,61.90
2022-12-03T02:36:05.669Z,54.30
2022-12-03T02:38:35.482Z,61.17
2022-12-03T02:41:06.517Z,56.03
2022-12-03T02:43:34.897Z,55.50
2022-12-03T02:46:04.826Z,58.20
2022-12-03T02:48:35.568Z,63.53
2022-12-03T02:51:06.529Z,48.07
2022-12-03T02:53:38.824Z,58.93
2022-12-03T02:56:07.730Z,52.43
2022-12-03T02:58:37.253Z,51.17
2022-12-03T03:01:06.171Z,52.00
2022-12-03T03:03:34.460Z,55.10
2022-12-03T03:06:03.659Z,57.17
2022-12-03T03:08:32.194Z,85.53
2022-12-03T03:11:02.078Z,56.40
2022-12-03T03:13:31.837Z,51.47
2022-12-03T03:16:05.760Z,54.73
2022-12-03T03:18:34.204Z,51.57
2022-12-03T03:21:02.569Z,52.80
2022-12-03T03:23:30.697Z,50.27
2022-12-03T03:26:01.827Z,50.97
2022-12-03T03:28:31.482Z,51.00
2022-12-03T03:31:01.601Z,68.10
2022-12-03T03:33:32.358Z,50.30
2022-12-03T03:36:03.138Z,76.07
2022-12-03T03:38:32.024Z,69.17
2022-12-03T03:41:02.536Z,63.13
2022-12-03T03:43:33.212Z,62.37
2022-12-03T03:46:02.879Z,56.10
2022-12-03T03:48:34.078Z,66.23
2022-12-03T03:51:08.646Z,64.87
2022-12-03T03:53:37.508Z,63.80
2022-12-03T03:56:05.874Z,58.27
2022-12-03T03:58:33.957Z,63.20
2022-12-03T04:01:01.987Z,78.17
2022-12-03T04:03:29.999Z,73.00
2022-12-03T04:05:59.460Z,64.93
2022-12-03T04:08:27.390Z,59.63
2022-12-03T04:11:12.952Z,56.53
2022-12-03T04:13:40.888Z,64.73
2022-12-03T04:16:08.902Z,59.83
2022-12-03T04:18:45.704Z,69.90
2022-12-03T04:21:34.801Z,64.40
2022-12-03T04:24:03.381Z,64.40
2022-12-03T04:26:48.664Z,66.27
2022-12-03T04:29:16.652Z,58.27
2022-12-03T04:32:02.204Z,62.20
2022-12-03T04:34:47.891Z,62.23
2022-12-03T04:37:17.577Z,54.23
2022-12-03T04:39:45.577Z,64.00
2022-12-03T04:42:13.797Z,61.27
2022-12-03T04:44:41.746Z,57.97
2022-12-03T04:47:11.945Z,58.30
2022-12-03T04:49:41.697Z,61.40
2022-12-03T04:52:10.493Z,69.00
2022-12-03T04:54:40.191Z,65.10
2022-12-03T04:57:09.505Z,58.80
2022-12-03T04:59:38.181Z,62.23
2022-12-03T05:02:07.473Z,61.67
2022-12-03T05:04:35.556Z,68.90
2022-12-03T05:07:03.682Z,70.83
2022-12-03T05:09:31.606Z,81.27
2022-12-03T05:12:00.942Z,68.40
2022-12-03T05:14:28.869Z,67.27
2022-12-03T05:16:56.899Z,97.10
2022-12-03T05:19:45.293Z,67.90
2022-12-03T05:22:12.204Z,65.63
2022-12-03T05:24:40.117Z,66.43
2022-12-03T05:27:09.392Z,64.23
2022-12-03T05:29:37.583Z,55.93
2022-12-03T05:32:05.851Z,63.70
2022-12-03T05:34:33.791Z,57.83
2022-12-03T05:37:01.710Z,48.87
2022-12-03T05:39:29.664Z,55.13
2022-12-03T05:42:15.549Z,63.57
2022-12-03T05:44:44.842Z,62.37
2022-12-03T05:47:12.826Z,68.80
2022-12-03T05:49:40.899Z,75.30
2022-12-03T05:52:08.823Z,65.27
2022-12-03T05:54:36.873Z,67.43
2022-12-03T05:57:05.002Z,61.67
2022-12-03T05:59:33.066Z,62.17
2022-12-03T06:02:02.636Z,71.80
2022-12-03T06:04:30.680Z,62.17
2022-12-03T06:06:58.606Z,64.40
2022-12-03T06:09:26.586Z,64.50
2022-12-03T06:11:54.548Z,58.03
2022-12-03T06:14:22.903Z,73.37
2022-12-03T06:16:50.856Z,70.50
2022-12-03T06:19:20.213Z,62.37
2022-12-03T06:21:48.156Z,77.67
2022-12-03T06:24:16.245Z,73.03
2022-12-03T06:26:44.173Z,65.30
2022-12-03T06:29:12.088Z,70.23
2022-12-03T06:31:40.204Z,61.90
2022-12-03T06:34:08.145Z,81.93
2022-12-03T06:36:37.408Z,81.07
2022-12-03T06:39:05.480Z,73.70
2022-12-03T06:41:33.414Z,83.50
2022-12-03T06:44:01.489Z,78.00
2022-12-03T06:46:29.457Z,91.90
2022-12-03T06:48:57.450Z,77.87
2022-12-03T06:51:25.361Z,73.33
2022-12-03T06:53:54.657Z,68.97
2022-12-03T06:56:22.810Z,78.13
2022-12-03T06:58:50.775Z,76.87
2022-12-03T07:01:19.251Z,83.40
2022-12-03T07:03:47.449Z,110.47
2022-12-03T07:06:15.506Z,77.70
2022-12-03T07:08:43.629Z,87.20
2022-12-03T07:11:26.889Z,79.90
2022-12-03T07:13:56.251Z,80.13
2022-12-03T07:16:27.170Z,126.23
2022-12-03T07:18:55.282Z,94.03
2022-12-03T07:21:23.509Z,90.33
2022-12-03T07:23:51.429Z,101.83
2022-12-03T07:26:22.286Z,71.97
2022-12-03T07:28:50.229Z,88.97
2022-12-03T07:31:18.274Z,75.10
2022-12-03T07:33:46.342Z,63.80
2022-12-03T07:36:14.305Z,90.87
2022-12-03T07:38:42.209Z,76.40
2022-12-03T07:41:10.197Z,74.80
2022-12-03T07:43:39.534Z,84.20
2022-12-03T07:46:08.482Z,71.43
2022-12-03T07:48:36.678Z,81.17
2022-12-03T07:51:04.733Z,75.83
2022-12-03T07:53:32.649Z,81.23
2022-12-03T07:56:00.588Z,73.93
2022-12-03T07:58:28.775Z,75.47
2022-12-03T08:00:58.484Z,111.13
2022-12-03T08:03:26.561Z,102.60
2022-12-03T08:05:54.558Z,66.97
2022-12-03T08:08:22.518Z,66.83
2022-12-03T08:10:50.532Z,91.47
2022-12-03T08:13:20.020Z,113.00
2022-12-03T08:15:48.197Z,101.20
2022-12-03T08:18:20.452Z,119.50
2022-12-03T08:20:49.886Z,81.10
2022-12-03T08:23:20.013Z,104.20
2022-12-03T08:25:48.662Z,82.97
2022-12-03T08:28:19.899Z,70.17
2022-12-03T08:30:58.984Z,87.80
2022-12-03T08:33:30.998Z,87.33
2022-12-03T08:35:59.041Z,68.83
2022-12-03T08:38:27.904Z,79.57
2022-12-03T08:40:56.347Z,80.03
2022-12-03T08:43:25.970Z,73.57
2022-12-03T08:45:54.936Z,81.80
2022-12-03T08:48:27.638Z,117.80
2022-12-03T08:50:59.348Z,98.47
2022-12-03T08:53:31.595Z,74.30
2022-12-03T08:56:01.208Z,95.30
2022-12-03T08:58:39.231Z,125.10
2022-12-03T09:01:38.222Z,134.13
2022-12-03T09:04:24.893Z,114.43
2022-12-03T09:06:55.166Z,130.13
2022-12-03T09:09:24.353Z,84.33
2022-12-03T09:11:53.850Z,113.97
2022-12-03T09:14:22.682Z,75.87
2022-12-03T09:16:51.949Z,91.23
2022-12-03T09:19:20.001Z,106.80
2022-12-03T09:21:47.928Z,126.73
2022-12-03T09:24:17.268Z,149.37
2022-12-03T09:26:45.229Z,120.00
2022-12-03T09:29:13.208Z,95.73
2022-12-03T09:31:41.386Z,95.37
2022-12-03T09:34:09.866Z,145.10
2022-12-03T09:36:37.947Z,115.63
2022-12-03T09:39:05.957Z,162.97
2022-12-03T09:41:35.300Z,123.17
2022-12-03T09:44:05.246Z,109.30
2022-12-03T09:46:35.150Z,142.70
2022-12-03T09:49:03.744Z,84.27
2022-12-03T09:51:35.332Z,91.07
2022-12-03T09:54:05.417Z,143.73
2022-12-03T09:56:37.073Z,194.10
2022-12-03T09:59:07.803Z,185.13
2022-12-03T10:01:36.042Z,149.67
2022-12-03T10:04:04.300Z,170.07
2022-12-03T10:06:32.463Z,131.33
2022-12-03T10:09:00.434Z,270.00
2022-12-03T10:11:30.082Z,187.97
2022-12-03T10:14:00.205Z,268.47
2022-12-03T10:16:30.441Z,172.00
2022-12-03T10:19:01.566Z,184.47
2022-12-03T10:21:32.555Z,249.07
2022-12-03T10:24:22.777Z,206.97
2022-12-03T10:26:53.213Z,129.37
2022-12-03T10:29:29.899Z,248.73
2022-12-03T10:32:03.113Z,208.73
2022-12-03T10:34:32.833Z,222.57
2022-12-03T10:37:12.197Z,188.87
2022-12-03T10:39:58.183Z,215.13
2022-12-03T10:42:27.730Z,205.53
2022-12-03T10:45:15.467Z,180.73
2022-12-03T10:47:44.954Z,260.50
2022-12-03T10:50:20.646Z,202.27
2022-12-03T10:52:48.607Z,178.93
2022-12-03T10:55:17.423Z,193.30
2022-12-03T10:57:46.394Z,206.13
2022-12-03T11:00:19.894Z,178.20
2022-12-03T11:02:54.967Z,280.70
2022-12-03T11:05:28.374Z,223.50
2022-12-03T11:07:57.445Z,283.83
2022-12-03T11:10:25.549Z,175.43
2022-12-03T11:13:44.137Z,185.23
2022-12-03T11:16:13.976Z,327.13
2022-12-03T11:19:03.045Z,204.43
2022-12-03T11:21:31.982Z,193.83
2022-12-03T11:24:21.673Z,228.80
2022-12-03T11:27:20.722Z,218.70
2022-12-03T11:29:59.688Z,294.70
2022-12-03T11:33:01.716Z,325.03
2022-12-03T11:35:37.595Z,274.43
2022-12-03T11:38:53.679Z,265.47
2022-12-03T11:41:25.697Z,220.20
2022-12-03T11:44:32.594Z,190.37
2022-12-03T11:47:02.324Z,164.50
2022-12-03T11:49:39.179Z,243.07
2022-12-03T11:52:22.699Z,240.47
2022-12-03T11:54:55.338Z,200.63
2022-12-03T11:57:28.636Z,273.40
2022-12-03T12:00:03.386Z,207.57
2022-12-03T12:02:31.385Z,196.17
2022-12-03T12:05:29.961Z,232.67
2022-12-03T12:07:58.376Z,211.40
2022-12-03T12:10:40.536Z,147.83
2022-12-03T12:13:25.780Z,262.50
2022-12-03T12:15:54.299Z,200.87
2022-12-03T12:18:40.406Z,160.80
2022-12-03T12:21:42.603Z,140.70
2022-12-03T12:24:35.846Z,137.10
2022-12-03T12:27:06.848Z,206.50
2022-12-03T12:29:35.525Z,149.77
2022-12-03T12:32:13.434Z,202.03
2022-12-03T12:34:42.743Z,183.90
2022-12-03T12:37:14.793Z,178.13
2022-12-03T12:39:42.767Z,232.33
2022-12-03T12:42:30.432Z,137.97
2022-12-03T12:45:07.354Z,242.10
2022-12-03T12:47:35.974Z,152.87
2022-12-03T12:50:10.263Z,262.83
2022-12-03T12:52:48.023Z,254.97
2022-12-03T12:55:17.362Z,215.97
2022-12-03T12:57:45.832Z,226.67
2022-12-03T13:00:19.194Z,165.93
2022-12-03T13:02:51.649Z,290.23
2022-12-03T13:05:19.758Z,258.43
2022-12-03T13:07:49.274Z,212.00
2022-12-03T13:10:33.407Z,251.73
2022-12-03T13:13:12.218Z,186.20
2022-12-03T13:15:45.609Z,264.90
2022-12-03T13:18:27.000Z,246.87
2022-12-03T13:20:55.940Z,279.03
2022-12-03T13:23:34.345Z,156.20
2022-12-03T13:26:21.334Z,137.07
2022-12-03T13:28:56.977Z,230.57
2022-12-03T13:31:29.657Z,227.90
2022-12-03T13:33:58.944Z,219.50
2022-12-03T13:36:37.951Z,271.37
2022-12-03T13:39:16.656Z,207.47
2022-12-03T13:42:02.439Z,249.27
2022-12-03T13:44:32.436Z,194.57
2022-12-03T13:47:03.932Z,261.97
2022-12-03T13:49:31.870Z,204.57
2022-12-03T13:51:59.823Z,213.67
2022-12-03T13:54:32.557Z,201.07
2022-12-03T13:57:02.587Z,301.83
2022-12-03T13:59:30.545Z,161.43
2022-12-03T14:01:58.569Z,236.30
2022-12-03T14:04:26.761Z,169.80
2022-12-03T14:06:54.690Z,185.60
2022-12-03T14:09:22.595Z,177.87
2022-12-03T14:12:09.837Z,277.97
2022-12-03T14:14:37.797Z,241.07
2022-12-03T14:17:06.547Z,215.90
2022-12-03T14:19:34.826Z,287.17
2022-12-03T14:22:02.887Z,227.13
2022-12-03T14:24:30.883Z,200.40
2022-12-03T14:27:00.246Z,188.47
2022-12-03T14:29:28.562Z,247.17
2022-12-03T14:31:56.554Z,158.30
2022-12-03T14:34:24.681Z,147.80
2022-12-03T14:36:52.826Z,249.20
2022-12-03T14:39:20.882Z,185.77
2022-12-03T14:42:06.573Z,194.03
2022-12-03T14:44:35.959Z,205.33
2022-12-03T14:47:04.013Z,195.60
2022-12-03T14:49:32.141Z,207.63
2022-12-03T14:52:00.258Z,241.20
2022-12-03T14:54:28.393Z,212.87
2022-12-03T14:56:56.397Z,180.90
2022-12-03T14:59:27.946Z,236.03
2022-12-03T15:01:57.771Z,223.47
2022-12-03T15:04:26.059Z,188.13
2022-12-03T15:06:54.057Z,182.60
2022-12-03T15:09:22.047Z,192.30
2022-12-03T15:11:50.140Z,238.80
2022-12-03T15:14:18.319Z,179.50
2022-12-03T15:16:46.415Z,200.53
2022-12-03T15:19:16.135Z,142.27
2022-12-03T15:21:44.179Z,205.10
2022-12-03T15:24:12.406Z,180.60
2022-12-03T15:26:40.457Z,196.10
2022-12-03T15:29:08.471Z,353.37
2022-12-03T15:31:36.587Z,204.67
2022-12-03T15:34:05.071Z,240.60
2022-12-03T15:36:36.847Z,220.80
2022-12-03T15:39:04.970Z,219.17
2022-12-03T15:41:33.064Z,163.83
2022-12-03T15:44:02.751Z,170.63
2022-12-03T15:46:32.036Z,197.43
2022-12-03T15:49:00.195Z,274.40
2022-12-03T15:51:28.181Z,259.97
2022-12-03T15:53:57.535Z,282.50
2022-12-03T15:56:25.493Z,245.43
2022-12-03T15:58:53.600Z,188.93
2022-12-03T16:01:21.561Z,256.57
2022-12-03T16:03:49.552Z,263.83
2022-12-03T16:06:18.136Z,249.50
2022-12-03T16:08:46.245Z,105.33
2022-12-03T16:11:15.546Z,229.37
2022-12-03T16:13:43.560Z,259.43
2022-12-03T16:16:11.597Z,200.83
2022-12-03T16:18:39.581Z,249.83
2022-12-03T16:21:07.620Z,291.63
2022-12-03T16:23:35.768Z,195.53
2022-12-03T16:26:03.736Z,209.83
2022-12-03T16:28:33.101Z,268.83
2022-12-03T16:31:01.217Z,212.60
2022-12-03T16:33:29.224Z,244.77
2022-12-03T16:35:57.214Z,323.17
2022-12-03T16:38:25.136Z,241.33
2022-12-03T16:40:53.043Z,254.87
2022-12-03T16:43:20.966Z,363.87
2022-12-03T16:46:09.823Z,228.43
2022-12-03T16:48:37.989Z,175.00
2022-12-03T16:51:06.141Z,185.93
2022-12-03T16:53:34.185Z,307.47
2022-12-03T16:56:02.405Z,268.40
2022-12-03T16:58:32.427Z,260.63
2022-12-03T17:01:01.781Z,318.30
2022-12-03T17:03:33.808Z,194.07
2022-12-03T17:06:02.241Z,338.53
2022-12-03T17:08:30.524Z,234.83
2022-12-03T17:10:58.710Z,429.67
2022-12-03T17:13:26.684Z,129.47
2022-12-03T17:15:54.828Z,376.60
2022-12-03T17:18:27.566Z,358.37
2022-12-03T17:20:55.517Z,276.33
2022-12-03T17:23:23.519Z,247.33
2022-12-03T17:25:51.476Z,350.50
2022-12-03T17:28:19.557Z,498.70
2022-12-03T17:30:50.149Z,278.13
2022-12-03T17:33:18.222Z,302.03
2022-12-03T17:35:47.576Z,283.37
2022-12-03T17:38:16.349Z,308.40
2022-12-03T17:40:44.396Z,386.33
2022-12-03T17:43:12.528Z,285.80
2022-12-03T17:45:40.560Z,227.40
2022-12-03T17:48:08.603Z,275.73
2022-12-03T17:50:36.553Z,362.90
2022-12-03T17:53:07.954Z,347.07
2022-12-03T17:55:41.233Z,209.43
2022-12-03T17:58:12.401Z,369.37
2022-12-03T18:00:42.829Z,271.77
2022-12-03T18:03:13.753Z,323.33
2022-12-03T18:05:41.716Z,273.17
2022-12-03T18:08:11.240Z,404.43
2022-12-03T18:10:39.627Z,323.60
2022-12-03T18:13:07.579Z,305.80
2022-12-03T18:15:35.623Z,279.60
2022-12-03T18:18:03.667Z,330.27
2022-12-03T18:20:35.099Z,265.03
2022-12-03T18:23:03.094Z,294.47
2022-12-03T18:25:32.562Z,261.73
2022-12-03T18:28:00.577Z,311.90
2022-12-03T18:30:28.599Z,284.00
2022-12-03T18:32:56.771Z,353.50
2022-12-03T18:35:24.921Z,234.53
2022-12-03T18:37:53.622Z,347.30
2022-12-03T18:40:24.737Z,317.63
2022-12-03T18:42:54.866Z,280.10
2022-12-03T18:45:22.935Z,349.13
2022-12-03T18:47:51.067Z,205.00
2022-12-03T18:50:19.192Z,357.33
2022-12-03T18:52:47.433Z,365.27
2022-12-03T18:55:19.469Z,217.30
2022-12-03T18:57:47.473Z,289.13
2022-12-03T19:00:17.725Z,278.47
2022-12-03T19:03:04.728Z,302.80
2022-12-03T19:05:34.114Z,340.63
2022-12-03T19:08:02.711Z,244.77
2022-12-03T19:10:30.792Z,238.00
2022-12-03T19:12:58.818Z,223.57
2022-12-03T19:15:28.340Z,224.77
2022-12-03T19:17:56.405Z,192.43
2022-12-03T19:20:24.408Z,260.30
2022-12-03T19:22:52.509Z,229.87
2022-12-03T19:25:20.500Z,213.70
2022-12-03T19:27:50.054Z,175.43
2022-12-03T19:30:18.548Z,229.80
2022-12-03T19:32:51.445Z,201.00
2022-12-03T19:35:21.662Z,244.43
2022-12-03T19:37:49.879Z,258.97
2022-12-03T19:40:18.362Z,168.90
2022-12-03T19:42:46.305Z,200.17
2022-12-03T19:45:14.366Z,201.87
2022-12-03T19:47:42.371Z,199.00
2022-12-03T19:50:19.313Z,190.27
2022-12-03T19:52:50.471Z,165.43
2022-12-03T19:55:19.490Z,141.90
2022-12-03T19:57:47.583Z,173.03
2022-12-03T20:00:16.934Z,124.17
2022-12-03T20:02:44.972Z,168.40
2022-12-03T20:05:14.428Z,135.53
2022-12-03T20:07:42.666Z,150.17
2022-12-03T20:10:11.241Z,171.97
2022-12-03T20:12:39.268Z,205.80
2022-12-03T20:15:08.147Z,133.40
2022-12-03T20:17:36.713Z,160.87
2022-12-03T20:20:05.519Z,173.03
2022-12-03T20:22:34.900Z,167.80
2022-12-03T20:25:03.690Z,155.97
2022-12-03T20:27:32.558Z,184.87
2022-12-03T20:30:00.462Z,156.13
2022-12-03T20:32:28.458Z,188.67
2022-12-03T20:34:56.622Z,181.50
2022-12-03T20:37:24.596Z,187.30
2022-12-03T20:39:54.330Z,159.07
2022-12-03T20:42:22.379Z,162.80
2022-12-03T20:44:52.543Z,143.27
2022-12-03T20:47:21.011Z,146.37
2022-12-03T20:49:49.145Z,141.13
2022-12-03T20:52:17.153Z,143.37
2022-12-03T20:54:45.661Z,119.23
2022-12-03T20:57:14.959Z,167.23
2022-12-03T20:59:42.917Z,150.57
2022-12-03T21:02:11.445Z,150.60
2022-12-03T21:04:39.764Z,131.73
2022-12-03T21:07:07.728Z,133.93
2022-12-03T21:09:35.785Z,119.73
2022-12-03T21:12:03.774Z,135.87
2022-12-03T21:14:33.481Z,149.27
2022-12-03T21:17:09.748Z,167.70
2022-12-03T21:19:38.483Z,121.00
2022-12-03T21:22:07.054Z,157.17
2022-12-03T21:24:35.378Z,170.03
2022-12-03T21:27:03.653Z,122.40
2022-12-03T21:29:33.032Z,139.67
2022-12-03T21:32:01.020Z,139.80
2022-12-03T21:34:35.545Z,128.40
2022-12-03T21:37:04.659Z,152.57
2022-12-03T21:39:32.774Z,154.17
2022-12-03T21:42:19.162Z,156.07
2022-12-03T21:44:50.787Z,145.70
2022-12-03T21:47:18.830Z,153.17
2022-12-03T21:49:46.830Z,160.00
2022-12-03T21:52:14.873Z,137.43
2022-12-03T21:54:42.861Z,157.00
2022-12-03T21:57:10.842Z,132.87
2022-12-03T21:59:38.797Z,129.33
2022-12-03T22:02:08.202Z,133.83
2022-12-03T22:04:36.297Z,109.50
2022-12-03T22:07:05.705Z,140.43
2022-12-03T22:09:34.368Z,149.87
2022-12-03T22:12:02.342Z,113.53
2022-12-03T22:14:30.497Z,131.80
2022-12-03T22:16:58.458Z,143.20
2022-12-03T22:19:28.431Z,143.80
2022-12-03T22:21:56.412Z,122.17
2022-12-03T22:24:24.381Z,135.93
2022-12-03T22:26:54.578Z,125.93
2022-12-03T22:29:22.629Z,124.20
2022-12-03T22:31:50.593Z,126.07
2022-12-03T22:34:18.568Z,127.50
2022-12-03T22:36:47.937Z,125.13
2022-12-03T22:39:15.900Z,136.47
2022-12-03T22:41:43.908Z,119.50
2022-12-03T22:44:12.302Z,109.50
2022-12-03T22:46:40.615Z,103.37
2022-12-03T22:49:09.136Z,106.20
2022-12-03T22:51:37.255Z,125.40
2022-12-03T22:54:06.991Z,124.30
2022-12-03T22:56:34.932Z,126.70
2022-12-03T22:59:02.854Z,98.80
2022-12-03T23:01:32.907Z,104.23
2022-12-03T23:04:01.830Z,89.43
2022-12-03T23:06:31.033Z,102.30
2022-12-03T23:08:59.768Z,97.33
2022-12-03T23:11:29.633Z,100.67
2022-12-03T23:13:58.848Z,106.03
2022-12-03T23:16:29.054Z,104.20
2022-12-03T23:18:58.895Z,110.23
2022-12-03T23:21:30.477Z,97.23
2022-12-03T23:23:58.909Z,73.63
2022-12-03T23:26:28.981Z,95.20
2022-12-03T23:28:57.606Z,110.63
2022-12-03T23:31:27.613Z,94.93
2022-12-03T23:33:56.682Z,78.77
2022-12-03T23:36:26.513Z,93.87
2022-12-03T23:38:55.218Z,109.80
2022-12-03T23:41:25.013Z,87.30
2022-12-03T23:43:54.314Z,108.23
2022-12-03T23:46:24.278Z,90.13
2022-12-03T23:48:52.988Z,116.57
2022-12-03T23:51:22.836Z,105.57
2022-12-03T23:53:52.619Z,98.93
2022-12-03T23:56:22.300Z,87.27
2022-12-03T23:58:50.604Z,87.47
